Portada
METAR-TAF:

METAR-TAF

Aeroports :

Asaluyeh, Iran

latitud: 27-22-46N, longitud: 52-44-15E, altitud: 8 m

Observació

L'informe es va fer fa 52 minuts, a les 03:30 UTC
Vent calma
Temperatura 30°C
Humitat 94%
Pressió 995 hPa
Visibilitat: 0500 m
boira,

METAR: OIBP 210330Z 00000KT 0500 FG NSC 30/29 Q0995 A2939

Hora: 08:52 (04:22 UTC)

Pronòstic

L'informe es va fer fa 2 hores i 12 minuts, a les 02:10 UTC
Pronòstic vàlid del 21 a les 03 UTC al 21 a les 12 UTC
Vent 7 kt del Sud/Sud-Est
Visibilitat: 3000 m
boirina
Temporalment
l' 21 a les 03 UTC al 21 a les 05 UTC
Visibilitat: 0800 m
boira
Evolucionant progressivament
l' 21 a les 07 UTC al 21 a les 09 UTC
Visibilitat: 7000 m

TAF: OIBP 210210Z 2103/2112 15007KT 3000 BR NSC TEMPO 2103/2105 0800 FG BECMG 2107/2109 7000

Observacions i pronòstics meteorològics de més de 4000 aeroports (METAR i TAF).

Les estacions disponibles són els punts grocs i vermells al mapa.

Posi el ratolí al punt desitjat per veure el nom de l'estació.

Feu clic per veure les observacions i els pronòstics meteorològics.

Per canviar el mapa: feu clic els botons verds amb una creu de color negre per apropar; al botó verd amb un guió per allunyar la imatge; o en les fletxes verdes per a mapes adjacents.


METAR-TAF: